createdAt,value
2023-02-16T00:01:52.692Z,15.93
2023-02-16T00:04:21.353Z,16.17
2023-02-16T00:06:48.879Z,16.37
2023-02-16T00:09:16.413Z,15.70
2023-02-16T00:12:02.215Z,16.07
2023-02-16T00:14:29.413Z,15.47
2023-02-16T00:16:58.453Z,16.43
2023-02-16T00:19:40.050Z,16.43
2023-02-16T00:22:07.674Z,17.07
2023-02-16T00:24:34.582Z,15.97
2023-02-16T00:27:01.548Z,15.50
2023-02-16T00:29:35.138Z,15.43
2023-02-16T00:32:03.851Z,15.93
2023-02-16T00:34:34.371Z,15.83
2023-02-16T00:37:07.057Z,14.73
2023-02-16T00:39:33.997Z,14.43
2023-02-16T00:42:06.345Z,14.53
2023-02-16T00:44:38.854Z,14.77
2023-02-16T00:47:14.312Z,15.97
2023-02-16T00:49:41.036Z,14.23
2023-02-16T00:52:27.449Z,14.60
2023-02-16T00:54:54.181Z,15.67
2023-02-16T00:57:21.170Z,16.23
2023-02-16T00:59:54.250Z,15.33
2023-02-16T01:02:20.931Z,15.53
2023-02-16T01:04:47.732Z,15.33
2023-02-16T01:07:35.033Z,15.50
2023-02-16T01:10:20.379Z,15.97
2023-02-16T01:12:47.099Z,15.77
2023-02-16T01:15:16.237Z,15.40
2023-02-16T01:17:42.936Z,15.87
2023-02-16T01:20:22.136Z,16.07
2023-02-16T01:22:48.881Z,17.90
2023-02-16T01:25:15.921Z,16.17
2023-02-16T01:27:43.280Z,15.93
2023-02-16T01:30:16.360Z,16.10
2023-02-16T01:32:43.116Z,16.97
2023-02-16T01:35:10.559Z,16.17
2023-02-16T01:37:37.238Z,16.73
2023-02-16T01:40:04.235Z,17.93
2023-02-16T01:42:49.713Z,16.77
2023-02-16T01:45:26.590Z,16.70
2023-02-16T01:47:56.018Z,17.40
2023-02-16T01:50:30.740Z,16.30
2023-02-16T01:53:02.107Z,17.20
2023-02-16T01:55:31.242Z,17.07
2023-02-16T01:58:19.569Z,16.67
2023-02-16T02:00:49.205Z,17.00
2023-02-16T02:03:38.696Z,16.80
2023-02-16T02:06:12.470Z,16.63
2023-02-16T02:08:45.173Z,16.53
2023-02-16T02:11:20.512Z,16.50
2023-02-16T02:14:00.905Z,17.67
2023-02-16T02:16:28.481Z,17.27
2023-02-16T02:18:55.290Z,16.57
2023-02-16T02:22:31.214Z,16.27
2023-02-16T02:25:19.723Z,16.83
2023-02-16T02:28:24.167Z,16.77
2023-02-16T02:31:18.851Z,16.27
2023-02-16T02:33:54.570Z,17.03
2023-02-16T02:36:36.245Z,16.67
2023-02-16T02:39:32.615Z,16.70
2023-02-16T02:42:18.479Z,16.87
2023-02-16T02:44:55.381Z,16.60
2023-02-16T02:47:22.071Z,16.47
2023-02-16T02:49:51.088Z,17.17
2023-02-16T02:52:18.511Z,16.00
2023-02-16T02:55:06.272Z,16.17
2023-02-16T02:57:57.352Z,16.33
2023-02-16T03:00:41.293Z,16.43
2023-02-16T03:03:23.166Z,16.73
2023-02-16T03:05:57.100Z,16.37
2023-02-16T03:08:26.871Z,15.20
2023-02-16T03:11:16.822Z,15.67
2023-02-16T03:13:47.856Z,15.43
2023-02-16T03:16:21.542Z,15.33
2023-02-16T03:19:07.429Z,14.67
2023-02-16T03:21:54.292Z,16.17
2023-02-16T03:24:47.159Z,16.33
2023-02-16T03:27:38.652Z,14.83
2023-02-16T03:30:08.045Z,14.87
2023-02-16T03:32:35.032Z,14.03
2023-02-16T03:35:01.861Z,15.27
2023-02-16T03:37:28.530Z,13.90
2023-02-16T03:40:13.874Z,13.37
2023-02-16T03:42:47.776Z,14.83
2023-02-16T03:45:14.425Z,14.20
2023-02-16T03:47:41.052Z,13.43
2023-02-16T03:50:08.140Z,13.23
2023-02-16T03:52:34.774Z,12.90
2023-02-16T03:55:01.418Z,13.87
2023-02-16T03:57:28.156Z,12.70
2023-02-16T03:59:54.854Z,12.30
2023-02-16T04:02:21.654Z,11.97
2023-02-16T04:04:48.358Z,13.20
2023-02-16T04:07:15.004Z,12.60
2023-02-16T04:09:41.681Z,13.17
2023-02-16T04:12:27.782Z,12.37
2023-02-16T04:14:54.462Z,12.73
2023-02-16T04:17:21.093Z,13.07
2023-02-16T04:19:47.736Z,11.80
2023-02-16T04:22:14.476Z,11.57
2023-02-16T04:24:41.137Z,12.33
2023-02-16T04:27:07.927Z,12.00
2023-02-16T04:29:34.562Z,12.07
2023-02-16T04:32:01.318Z,10.80
2023-02-16T04:34:27.990Z,10.73
2023-02-16T04:36:54.602Z,10.57
2023-02-16T04:39:21.785Z,10.67
2023-02-16T04:41:48.409Z,10.73
2023-02-16T04:44:15.100Z,12.03
2023-02-16T04:46:41.847Z,11.90
2023-02-16T04:49:08.544Z,10.63
2023-02-16T04:51:35.217Z,11.57
2023-02-16T04:54:01.939Z,10.83
2023-02-16T04:56:28.622Z,10.90
2023-02-16T04:58:56.425Z,11.13
2023-02-16T05:01:26.105Z,11.20
2023-02-16T05:03:53.310Z,11.00
2023-02-16T05:06:20.467Z,11.37
2023-02-16T05:08:47.256Z,12.17
2023-02-16T05:11:33.017Z,11.77
2023-02-16T05:14:18.976Z,12.50
2023-02-16T05:16:46.350Z,12.77
2023-02-16T05:19:13.760Z,12.27
2023-02-16T05:21:40.463Z,11.63
2023-02-16T05:24:11.738Z,11.83
2023-02-16T05:26:42.138Z,11.13
2023-02-16T05:29:08.896Z,11.60
2023-02-16T05:31:35.645Z,11.00
2023-02-16T05:34:02.380Z,14.37
2023-02-16T05:36:29.092Z,14.00
2023-02-16T05:38:56.748Z,14.83
2023-02-16T05:41:23.517Z,12.33
2023-02-16T05:44:01.671Z,12.10
2023-02-16T05:46:29.607Z,15.13
2023-02-16T05:48:56.331Z,16.20
2023-02-16T05:51:23.778Z,16.67
2023-02-16T05:53:50.729Z,15.13
2023-02-16T05:56:18.298Z,15.40
2023-02-16T05:58:45.195Z,14.60
2023-02-16T06:01:12.380Z,15.63
2023-02-16T06:03:39.138Z,15.73
2023-02-16T06:06:06.467Z,15.63
2023-02-16T06:08:33.887Z,16.67
2023-02-16T06:11:00.658Z,21.10
2023-02-16T06:13:27.454Z,22.60
2023-02-16T06:15:56.237Z,22.30
2023-02-16T06:18:24.350Z,20.37
2023-02-16T06:20:51.228Z,20.33
2023-02-16T06:23:18.188Z,19.13
2023-02-16T06:25:48.763Z,20.37
2023-02-16T06:28:15.978Z,24.33
2023-02-16T06:30:42.661Z,23.07
2023-02-16T06:33:09.533Z,19.97
2023-02-16T06:35:36.173Z,17.90
2023-02-16T06:38:02.859Z,14.63
2023-02-16T06:40:29.567Z,14.60
2023-02-16T06:42:56.276Z,14.73
2023-02-16T06:45:23.002Z,16.07
2023-02-16T06:47:49.629Z,15.30
2023-02-16T06:50:17.671Z,16.03
2023-02-16T06:52:44.561Z,15.63
2023-02-16T06:55:11.469Z,15.50
2023-02-16T06:57:38.157Z,15.73
2023-02-16T07:00:07.572Z,15.20
2023-02-16T07:02:35.638Z,17.87
2023-02-16T07:05:03.281Z,18.53
2023-02-16T07:07:31.026Z,16.57
2023-02-16T07:09:58.219Z,16.93
2023-02-16T07:12:24.957Z,15.90
2023-02-16T07:14:51.558Z,15.70
2023-02-16T07:17:18.208Z,16.83
2023-02-16T07:19:44.866Z,17.73
2023-02-16T07:22:12.120Z,16.87
2023-02-16T07:24:38.789Z,16.57
2023-02-16T07:27:08.591Z,16.70
2023-02-16T07:29:35.463Z,17.50
2023-02-16T07:32:03.790Z,19.07
2023-02-16T07:34:30.914Z,17.03
2023-02-16T07:36:57.864Z,16.13
2023-02-16T07:39:24.724Z,15.53
2023-02-16T07:41:51.357Z,15.93
2023-02-16T07:44:18.000Z,15.57
2023-02-16T07:46:44.744Z,15.50
2023-02-16T07:49:11.401Z,15.47
2023-02-16T07:51:38.057Z,14.70
2023-02-16T07:54:04.855Z,15.10
2023-02-16T07:56:35.413Z,15.03
2023-02-16T07:59:03.756Z,15.73
2023-02-16T08:01:31.562Z,15.33
2023-02-16T08:03:58.336Z,14.27
2023-02-16T08:06:24.972Z,14.13
2023-02-16T08:08:51.717Z,14.10
2023-02-16T08:11:23.853Z,13.17
2023-02-16T08:13:50.953Z,12.27
2023-02-16T08:16:26.716Z,12.47
2023-02-16T08:18:56.245Z,11.47
2023-02-16T08:21:25.788Z,11.50
2023-02-16T08:23:55.382Z,11.70
2023-02-16T08:26:24.617Z,11.57
2023-02-16T08:28:51.669Z,11.23
2023-02-16T08:31:24.733Z,12.47
2023-02-16T08:33:56.494Z,12.30
2023-02-16T08:36:34.850Z,15.47
2023-02-16T08:39:04.166Z,15.37
2023-02-16T08:41:33.657Z,15.07
2023-02-16T08:44:01.048Z,15.10
2023-02-16T08:46:29.550Z,15.73
2023-02-16T08:48:59.604Z,16.83
2023-02-16T08:51:28.910Z,16.07
2023-02-16T08:53:57.103Z,17.03
2023-02-16T08:56:23.874Z,15.13
2023-02-16T08:58:50.641Z,16.03
2023-02-16T09:01:17.695Z,17.60
2023-02-16T09:03:46.218Z,15.77
2023-02-16T09:06:15.570Z,18.03
2023-02-16T09:08:43.214Z,17.50
2023-02-16T09:11:13.198Z,17.63
2023-02-16T09:13:44.689Z,16.87
2023-02-16T09:16:15.574Z,16.40
2023-02-16T09:18:42.614Z,15.77
2023-02-16T09:21:11.919Z,16.53
2023-02-16T09:23:40.540Z,16.63
2023-02-16T09:26:09.601Z,15.87
2023-02-16T09:28:40.144Z,16.33
2023-02-16T09:31:34.222Z,16.60
2023-02-16T09:34:05.841Z,16.30
2023-02-16T09:36:32.567Z,16.77
2023-02-16T09:39:00.010Z,16.13
2023-02-16T09:41:37.763Z,16.70
2023-02-16T09:44:38.108Z,16.03
2023-02-16T09:47:11.282Z,15.30
2023-02-16T09:49:43.963Z,15.47
2023-02-16T09:52:29.509Z,16.20
2023-02-16T09:54:59.389Z,14.87
2023-02-16T09:57:25.965Z,16.60
2023-02-16T10:00:23.316Z,15.20
2023-02-16T10:02:59.290Z,15.73
2023-02-16T10:05:50.834Z,16.07
2023-02-16T10:08:27.554Z,16.00
2023-02-16T10:11:34.489Z,16.43
2023-02-16T10:14:08.275Z,15.23
2023-02-16T10:16:42.685Z,15.23
2023-02-16T10:19:31.066Z,14.30
2023-02-16T10:22:04.530Z,14.70
2023-02-16T10:24:53.297Z,14.03
2023-02-16T10:27:22.774Z,13.67
2023-02-16T10:29:49.488Z,14.30
2023-02-16T10:32:28.897Z,13.67
2023-02-16T10:35:17.480Z,13.93
2023-02-16T10:37:52.646Z,15.03
2023-02-16T10:40:28.747Z,13.67
2023-02-16T10:43:01.042Z,14.07
2023-02-16T10:45:31.932Z,13.93
2023-02-16T10:47:58.933Z,14.10
2023-02-16T10:50:40.859Z,13.47
2023-02-16T10:53:18.965Z,13.27
2023-02-16T10:55:45.789Z,12.83
2023-02-16T10:58:26.971Z,13.50
2023-02-16T11:01:00.643Z,12.70
2023-02-16T11:03:33.386Z,12.13
2023-02-16T11:06:36.422Z,11.80
2023-02-16T11:09:04.545Z,11.50
2023-02-16T11:11:38.502Z,11.87
2023-02-16T11:14:09.431Z,11.20
2023-02-16T11:16:36.203Z,10.73
2023-02-16T11:19:17.743Z,11.20
2023-02-16T11:21:47.879Z,10.57
2023-02-16T11:24:24.756Z,10.40
2023-02-16T11:27:14.572Z,9.97
2023-02-16T11:29:41.398Z,9.60
2023-02-16T11:32:10.556Z,9.73
2023-02-16T11:34:42.905Z,9.53
2023-02-16T11:37:27.426Z,9.77
2023-02-16T11:40:00.369Z,10.00
2023-02-16T11:42:34.888Z,10.27
2023-02-16T11:45:04.324Z,9.83
2023-02-16T11:47:37.504Z,9.60
2023-02-16T11:50:18.926Z,10.03
2023-02-16T11:52:49.562Z,9.77
2023-02-16T11:55:35.967Z,8.73
2023-02-16T11:58:27.626Z,8.43
2023-02-16T12:01:12.982Z,9.27
2023-02-16T12:04:03.819Z,9.03
2023-02-16T12:07:00.507Z,8.63
2023-02-16T12:09:39.218Z,8.83
2023-02-16T12:12:08.699Z,9.73
2023-02-16T12:14:49.402Z,8.10
2023-02-16T12:17:40.742Z,7.50
2023-02-16T12:20:22.083Z,8.23
2023-02-16T12:22:51.242Z,8.20
2023-02-16T12:25:33.402Z,7.90
2023-02-16T12:28:03.167Z,7.37
2023-02-16T12:30:55.245Z,7.77
2023-02-16T12:33:38.548Z,7.83
2023-02-16T12:36:14.427Z,7.57
2023-02-16T12:39:12.767Z,7.83
2023-02-16T12:41:54.051Z,7.70
2023-02-16T12:44:35.873Z,8.23
2023-02-16T12:47:08.091Z,8.23
2023-02-16T12:49:53.653Z,8.13
2023-02-16T12:52:38.872Z,7.63
2023-02-16T12:55:27.551Z,7.93
2023-02-16T12:58:01.555Z,8.13
2023-02-16T13:00:56.073Z,8.17
2023-02-16T13:03:54.302Z,8.10
2023-02-16T13:06:43.868Z,7.55
2023-02-16T13:09:29.047Z,8.48
2023-02-16T13:12:04.875Z,7.93
2023-02-16T13:14:34.826Z,7.97
2023-02-16T13:17:15.948Z,8.20
2023-02-16T13:19:44.532Z,7.45
2023-02-16T13:22:49.795Z,7.55
2023-02-16T13:25:48.907Z,7.22
2023-02-16T13:28:46.029Z,6.88
2023-02-16T13:31:35.418Z,7.30
2023-02-16T13:34:02.513Z,6.70
2023-02-16T13:36:46.277Z,6.97
2023-02-16T13:39:34.656Z,6.60
2023-02-16T13:42:19.518Z,5.97
2023-02-16T13:44:56.035Z,5.95
2023-02-16T13:47:31.059Z,6.55
2023-02-16T13:50:00.327Z,7.13
2023-02-16T13:52:31.687Z,6.80
2023-02-16T13:55:04.566Z,7.10
2023-02-16T13:57:56.532Z,6.93
2023-02-16T14:00:40.370Z,7.43
2023-02-16T14:03:32.048Z,6.95
2023-02-16T14:06:32.351Z,7.03
2023-02-16T14:09:14.188Z,7.50
2023-02-16T14:11:53.116Z,7.50
2023-02-16T14:14:37.929Z,6.85
2023-02-16T14:17:19.889Z,7.03
2023-02-16T14:20:06.878Z,7.75
2023-02-16T14:22:45.442Z,7.00
2023-02-16T14:25:23.970Z,7.07
2023-02-16T14:28:02.664Z,6.45
2023-02-16T14:30:47.099Z,6.72
2023-02-16T14:33:16.782Z,6.32
2023-02-16T14:35:58.403Z,6.82
2023-02-16T14:38:43.685Z,6.78
2023-02-16T14:41:22.680Z,7.65
2023-02-16T14:44:02.322Z,6.53
2023-02-16T14:46:59.126Z,6.50
2023-02-16T14:49:55.146Z,5.93
2023-02-16T14:52:41.091Z,7.78
2023-02-16T14:55:45.953Z,6.90
2023-02-16T14:58:31.555Z,7.05
2023-02-16T15:01:10.019Z,6.78
2023-02-16T15:03:46.313Z,6.50
2023-02-16T15:06:37.182Z,6.57
2023-02-16T15:09:13.756Z,6.32
2023-02-16T15:12:12.034Z,6.65
2023-02-16T15:15:04.522Z,6.25
2023-02-16T15:17:44.903Z,6.05
2023-02-16T15:20:24.956Z,5.47
2023-02-16T15:22:54.371Z,6.30
2023-02-16T15:25:27.655Z,5.65
2023-02-16T15:28:27.843Z,5.93
2023-02-16T15:30:58.366Z,5.85
2023-02-16T15:33:32.516Z,5.80
2023-02-16T15:36:01.687Z,6.05
2023-02-16T15:39:04.147Z,6.72
2023-02-16T15:41:38.292Z,6.47
2023-02-16T15:44:07.564Z,7.20
2023-02-16T15:46:40.453Z,6.18
2023-02-16T15:49:14.352Z,6.78
2023-02-16T15:51:43.073Z,5.95
2023-02-16T15:54:35.569Z,5.82
2023-02-16T15:57:06.952Z,6.47
2023-02-16T15:59:38.760Z,6.20
2023-02-16T16:02:13.925Z,5.85
2023-02-16T16:04:42.390Z,5.80
2023-02-16T16:07:14.414Z,6.18
2023-02-16T16:09:42.499Z,5.35
2023-02-16T16:12:13.625Z,5.70
2023-02-16T16:14:48.458Z,5.82
2023-02-16T16:17:17.111Z,5.43
2023-02-16T16:19:43.755Z,5.68
2023-02-16T16:22:34.451Z,5.65
2023-02-16T16:25:02.001Z,5.70
2023-02-16T16:27:32.520Z,6.22
2023-02-16T16:30:28.864Z,5.23
2023-02-16T16:33:08.565Z,5.75
2023-02-16T16:35:44.232Z,5.80
2023-02-16T16:38:26.819Z,5.63
2023-02-16T16:41:03.420Z,6.07
2023-02-16T16:43:46.742Z,5.78
2023-02-16T16:46:24.906Z,5.60
2023-02-16T16:48:59.979Z,5.85
2023-02-16T16:51:31.384Z,5.78
2023-02-16T16:54:04.205Z,5.85
2023-02-16T16:56:35.617Z,5.85
2023-02-16T16:59:02.646Z,5.75
2023-02-16T17:01:30.061Z,6.00
2023-02-16T17:03:59.699Z,6.00
2023-02-16T17:06:27.506Z,6.00
2023-02-16T17:08:55.211Z,6.57
2023-02-16T17:11:34.572Z,6.43
2023-02-16T17:14:20.499Z,7.20
2023-02-16T17:16:50.800Z,6.30
2023-02-16T17:19:23.415Z,6.45
2023-02-16T17:21:50.094Z,6.60
2023-02-16T17:24:16.938Z,7.07
2023-02-16T17:26:43.743Z,6.88
2023-02-16T17:29:10.676Z,6.25
2023-02-16T17:31:37.527Z,6.72
2023-02-16T17:34:04.563Z,6.82
2023-02-16T17:36:32.320Z,7.28
2023-02-16T17:38:58.983Z,6.38
2023-02-16T17:41:28.330Z,6.90
2023-02-16T17:43:55.165Z,6.65
2023-02-16T17:46:23.527Z,6.90
2023-02-16T17:48:53.808Z,9.33
2023-02-16T17:51:22.499Z,7.10
2023-02-16T17:53:49.282Z,7.00
2023-02-16T17:56:17.885Z,7.53
2023-02-16T17:58:44.855Z,6.93
2023-02-16T18:01:14.813Z,7.30
2023-02-16T18:03:41.842Z,6.35
2023-02-16T18:06:13.700Z,6.50
2023-02-16T18:08:40.799Z,6.87
2023-02-16T18:11:07.493Z,6.67
2023-02-16T18:13:34.217Z,6.60
2023-02-16T18:16:03.846Z,7.77
2023-02-16T18:18:32.806Z,7.87
2023-02-16T18:20:59.574Z,7.10
2023-02-16T18:23:26.252Z,6.00
2023-02-16T18:25:53.144Z,14.73
2023-02-16T18:28:24.874Z,8.37
2023-02-16T18:30:51.497Z,30.30
2023-02-16T18:33:23.786Z,10.70
2023-02-16T18:35:56.268Z,5.90
2023-02-16T18:38:24.012Z,5.90
2023-02-16T18:40:53.295Z,6.07
2023-02-16T18:43:20.992Z,6.30
2023-02-16T18:45:47.986Z,5.20
2023-02-16T18:48:15.125Z,5.83
2023-02-16T18:50:41.835Z,5.10
2023-02-16T18:53:08.533Z,5.23
2023-02-16T18:55:35.613Z,5.53
2023-02-16T18:58:07.640Z,4.80
2023-02-16T19:00:35.224Z,4.77
2023-02-16T19:03:02.990Z,5.10
2023-02-16T19:05:30.114Z,5.70
2023-02-16T19:07:56.926Z,4.73
2023-02-16T19:10:24.941Z,5.13
2023-02-16T19:12:51.694Z,4.93
2023-02-16T19:15:18.418Z,4.57
2023-02-16T19:17:45.084Z,4.83
2023-02-16T19:20:16.649Z,5.23
2023-02-16T19:22:43.683Z,4.93
2023-02-16T19:25:10.358Z,4.90
2023-02-16T19:27:36.953Z,5.70
2023-02-16T19:30:04.661Z,5.38
2023-02-16T19:32:31.339Z,5.13
2023-02-16T19:34:58.031Z,5.30
2023-02-16T19:37:24.786Z,5.43
2023-02-16T19:39:51.625Z,5.47
2023-02-16T19:42:18.262Z,5.80
2023-02-16T19:44:44.875Z,5.37
2023-02-16T19:47:11.542Z,5.70
2023-02-16T19:49:38.523Z,5.75
2023-02-16T19:52:05.532Z,6.00
2023-02-16T19:54:34.974Z,5.83
2023-02-16T19:57:02.688Z,5.40
2023-02-16T19:59:30.366Z,6.43
2023-02-16T20:01:58.969Z,6.10
2023-02-16T20:04:26.021Z,5.93
2023-02-16T20:06:54.460Z,5.93
2023-02-16T20:09:21.936Z,6.00
2023-02-16T20:11:48.822Z,6.13
2023-02-16T20:14:15.449Z,6.03
2023-02-16T20:16:42.427Z,5.57
2023-02-16T20:19:09.120Z,6.70
2023-02-16T20:21:35.909Z,6.55
2023-02-16T20:24:05.459Z,6.72
2023-02-16T20:26:38.757Z,6.93
2023-02-16T20:29:07.743Z,7.00
2023-02-16T20:31:41.198Z,6.73
2023-02-16T20:34:09.036Z,7.15
2023-02-16T20:36:37.138Z,6.88
2023-02-16T20:39:05.452Z,6.90
2023-02-16T20:41:32.188Z,6.37
2023-02-16T20:43:59.272Z,6.78
2023-02-16T20:46:26.054Z,8.57
2023-02-16T20:48:52.882Z,7.50
2023-02-16T20:51:20.209Z,8.00
2023-02-16T20:53:46.989Z,7.43
2023-02-16T20:56:21.298Z,7.55
2023-02-16T20:58:49.645Z,7.80
2023-02-16T21:01:26.331Z,6.97
2023-02-16T21:03:55.552Z,7.50
2023-02-16T21:06:22.710Z,7.57
2023-02-16T21:08:49.348Z,7.57
2023-02-16T21:11:16.779Z,7.10
2023-02-16T21:13:43.867Z,7.20
2023-02-16T21:16:11.424Z,7.28
2023-02-16T21:18:40.415Z,6.43
2023-02-16T21:21:08.180Z,6.95
2023-02-16T21:23:34.940Z,6.93
2023-02-16T21:26:05.978Z,6.60
2023-02-16T21:28:33.574Z,6.68
2023-02-16T21:31:06.039Z,6.95
2023-02-16T21:33:33.381Z,6.78
2023-02-16T21:36:09.028Z,6.90
2023-02-16T21:38:36.341Z,6.90
2023-02-16T21:41:24.061Z,7.22
2023-02-16T21:43:52.558Z,6.70
2023-02-16T21:46:19.289Z,6.87
2023-02-16T21:48:48.948Z,6.95
2023-02-16T21:51:21.969Z,6.47
2023-02-16T21:53:48.807Z,6.00
2023-02-16T21:56:23.641Z,6.03
2023-02-16T21:58:50.438Z,6.70
2023-02-16T22:01:28.964Z,6.40
2023-02-16T22:03:58.535Z,6.70
2023-02-16T22:06:28.417Z,5.83
2023-02-16T22:08:55.112Z,6.87
2023-02-16T22:11:22.035Z,5.90
2023-02-16T22:13:53.547Z,6.05
2023-02-16T22:16:20.658Z,6.28
2023-02-16T22:18:47.866Z,6.07
2023-02-16T22:21:15.430Z,6.07
2023-02-16T22:23:42.290Z,5.90
2023-02-16T22:26:19.351Z,6.10
2023-02-16T22:28:45.949Z,6.30
2023-02-16T22:31:12.740Z,6.00
2023-02-16T22:33:39.366Z,5.77
2023-02-16T22:36:13.734Z,5.82
2023-02-16T22:38:42.024Z,5.83
2023-02-16T22:41:09.759Z,6.47
2023-02-16T22:43:37.382Z,5.97
2023-02-16T22:46:09.632Z,5.85
2023-02-16T22:48:36.779Z,5.77
2023-02-16T22:51:05.758Z,5.53
2023-02-16T22:53:32.824Z,6.20
2023-02-16T22:55:59.600Z,5.80
2023-02-16T22:58:27.344Z,5.90
2023-02-16T23:00:54.096Z,5.57
2023-02-16T23:03:20.759Z,6.00
2023-02-16T23:05:47.675Z,6.35
2023-02-16T23:08:14.442Z,6.13
2023-02-16T23:10:59.592Z,6.27
2023-02-16T23:13:28.451Z,6.50
2023-02-16T23:15:56.260Z,5.80
2023-02-16T23:18:24.015Z,5.73
2023-02-16T23:20:50.786Z,5.90
2023-02-16T23:23:17.459Z,6.10
2023-02-16T23:25:49.302Z,5.80
2023-02-16T23:28:16.094Z,5.82
2023-02-16T23:30:45.402Z,6.20
2023-02-16T23:33:13.570Z,5.83
2023-02-16T23:35:41.894Z,6.03
2023-02-16T23:38:13.365Z,6.20
2023-02-16T23:40:40.622Z,5.30
2023-02-16T23:43:07.833Z,5.40
2023-02-16T23:45:35.317Z,5.70
2023-02-16T23:48:02.077Z,5.20
2023-02-16T23:50:28.783Z,5.40
2023-02-16T23:52:55.512Z,5.40
2023-02-16T23:55:22.201Z,5.50
2023-02-16T23:57:48.865Z,5.37
